sensor_id;sensor_type;location;lat;lon;timestamp;temperature;humidity
2202;DHT22;1107;48.654;9.250;2022-09-13T00:01:52;16.60;1.00
2202;DHT22;1107;48.654;9.250;2022-09-13T00:04:19;16.50;1.00
2202;DHT22;1107;48.654;9.250;2022-09-13T00:06:45;16.50;65.50
2202;DHT22;1107;48.654;9.250;2022-09-13T00:09:12;16.40;99.90
2202;DHT22;1107;48.654;9.250;2022-09-13T00:11:39;16.30;99.90
2202;DHT22;1107;48.654;9.250;2022-09-13T00:14:08;16.30;99.90
2202;DHT22;1107;48.654;9.250;2022-09-13T00:16:35;16.20;99.90
2202;DHT22;1107;48.654;9.250;2022-09-13T00:19:02;16.20;99.90
2202;DHT22;1107;48.654;9.250;2022-09-13T00:21:29;16.10;99.90
2202;DHT22;1107;48.654;9.250;2022-09-13T00:23:55;16.10;1.00
2202;DHT22;1107;48.654;9.250;2022-09-13T00:26:24;16.10;1.00
2202;DHT22;1107;48.654;9.250;2022-09-13T00:28:53;16.00;1.00
2202;DHT22;1107;48.654;9.250;2022-09-13T00:31:23;16.10;1.00
2202;DHT22;1107;48.654;9.250;2022-09-13T00:33:52;16.00;1.00
2202;DHT22;1107;48.654;9.250;2022-09-13T00:36:19;16.00;1.00
2202;DHT22;1107;48.654;9.250;2022-09-13T00:38:46;16.00;1.00
2202;DHT22;1107;48.654;9.250;2022-09-13T00:41:15;16.00;1.00
2202;DHT22;1107;48.654;9.250;2022-09-13T00:43:48;16.00;1.00
2202;DHT22;1107;48.654;9.250;2022-09-13T00:46:30;15.90;1.00
2202;DHT22;1107;48.654;9.250;2022-09-13T00:49:02;15.90;1.00
2202;DHT22;1107;48.654;9.250;2022-09-13T00:51:30;15.80;1.00
2202;DHT22;1107;48.654;9.250;2022-09-13T00:53:58;15.80;1.00
2202;DHT22;1107;48.654;9.250;2022-09-13T00:56:30;15.80;1.00
2202;DHT22;1107;48.654;9.250;2022-09-13T00:59:00;15.80;12.20
2202;DHT22;1107;48.654;9.250;2022-09-13T01:01:32;15.80;1.00
2202;DHT22;1107;48.654;9.250;2022-09-13T01:04:02;15.80;1.00
2202;DHT22;1107;48.654;9.250;2022-09-13T01:06:32;15.80;1.00
2202;DHT22;1107;48.654;9.250;2022-09-13T01:09:01;15.80;1.00
2202;DHT22;1107;48.654;9.250;2022-09-13T01:11:36;15.80;1.00
2202;DHT22;1107;48.654;9.250;2022-09-13T01:14:06;15.80;1.00
2202;DHT22;1107;48.654;9.250;2022-09-13T01:16:36;15.70;1.00
2202;DHT22;1107;48.654;9.250;2022-09-13T01:19:03;15.70;99.90
2202;DHT22;1107;48.654;9.250;2022-09-13T01:21:55;15.60;99.90
2202;DHT22;1107;48.654;9.250;2022-09-13T01:27:36;15.50;99.90
2202;DHT22;1107;48.654;9.250;2022-09-13T01:30:16;15.40;1.00
2202;DHT22;1107;48.654;9.250;2022-09-13T01:35:59;15.20;1.00
2202;DHT22;1107;48.654;9.250;2022-09-13T01:38:42;15.10;1.00
2202;DHT22;1107;48.654;9.250;2022-09-13T01:41:30;15.00;99.90
2202;DHT22;1107;48.654;9.250;2022-09-13T01:44:06;14.90;99.90
2202;DHT22;1107;48.654;9.250;2022-09-13T01:46:46;14.80;1.00
2202;DHT22;1107;48.654;9.250;2022-09-13T01:49:20;14.80;1.00
2202;DHT22;1107;48.654;9.250;2022-09-13T01:51:53;14.70;99.90
2202;DHT22;1107;48.654;9.250;2022-09-13T01:54:29;14.70;99.90
2202;DHT22;1107;48.654;9.250;2022-09-13T01:57:00;14.70;1.00
2202;DHT22;1107;48.654;9.250;2022-09-13T01:59:37;14.70;1.00
2202;DHT22;1107;48.654;9.250;2022-09-13T02:02:10;14.70;1.00
2202;DHT22;1107;48.654;9.250;2022-09-13T02:04:42;14.60;1.00
2202;DHT22;1107;48.654;9.250;2022-09-13T02:07:12;14.60;1.00
2202;DHT22;1107;48.654;9.250;2022-09-13T02:09:44;14.50;1.00
2202;DHT22;1107;48.654;9.250;2022-09-13T02:12:15;14.50;99.90
2202;DHT22;1107;48.654;9.250;2022-09-13T02:14:46;14.50;99.90
2202;DHT22;1107;48.654;9.250;2022-09-13T02:17:21;14.40;1.00
2202;DHT22;1107;48.654;9.250;2022-09-13T02:19:53;14.40;99.90
2202;DHT22;1107;48.654;9.250;2022-09-13T02:22:24;14.40;1.00
2202;DHT22;1107;48.654;9.250;2022-09-13T02:24:57;14.50;1.00
2202;DHT22;1107;48.654;9.250;2022-09-13T02:27:29;14.50;1.00
2202;DHT22;1107;48.654;9.250;2022-09-13T02:30:01;14.50;1.00
2202;DHT22;1107;48.654;9.250;2022-09-13T02:32:33;14.50;1.00
2202;DHT22;1107;48.654;9.250;2022-09-13T02:35:05;14.50;1.00
2202;DHT22;1107;48.654;9.250;2022-09-13T02:37:35;14.40;1.00
2202;DHT22;1107;48.654;9.250;2022-09-13T02:40:04;14.30;99.90
2202;DHT22;1107;48.654;9.250;2022-09-13T02:42:36;14.30;1.00
2202;DHT22;1107;48.654;9.250;2022-09-13T02:45:07;14.30;99.90
2202;DHT22;1107;48.654;9.250;2022-09-13T02:47:43;14.30;99.90
2202;DHT22;1107;48.654;9.250;2022-09-13T02:50:24;14.40;1.00
2202;DHT22;1107;48.654;9.250;2022-09-13T02:53:01;14.30;1.00
2202;DHT22;1107;48.654;9.250;2022-09-13T02:55:38;14.30;1.00
2202;DHT22;1107;48.654;9.250;2022-09-13T02:58:11;14.20;24.90
2202;DHT22;1107;48.654;9.250;2022-09-13T03:00:39;14.20;79.00
2202;DHT22;1107;48.654;9.250;2022-09-13T03:03:11;14.30;1.00
2202;DHT22;1107;48.654;9.250;2022-09-13T03:05:39;14.30;99.90
2202;DHT22;1107;48.654;9.250;2022-09-13T03:08:07;14.20;1.00
2202;DHT22;1107;48.654;9.250;2022-09-13T03:10:47;14.10;99.90
2202;DHT22;1107;48.654;9.250;2022-09-13T03:13:38;14.00;1.00
2202;DHT22;1107;48.654;9.250;2022-09-13T03:16:17;13.90;99.60
2202;DHT22;1107;48.654;9.250;2022-09-13T03:18:56;13.80;1.00
2202;DHT22;1107;48.654;9.250;2022-09-13T03:21:42;13.80;99.90
2202;DHT22;1107;48.654;9.250;2022-09-13T03:24:20;13.70;99.90
2202;DHT22;1107;48.654;9.250;2022-09-13T03:26:57;13.60;1.00
2202;DHT22;1107;48.654;9.250;2022-09-13T03:29:29;13.50;99.90
2202;DHT22;1107;48.654;9.250;2022-09-13T03:32:17;13.30;1.00
2202;DHT22;1107;48.654;9.250;2022-09-13T03:34:54;13.20;1.00
2202;DHT22;1107;48.654;9.250;2022-09-13T03:37:31;13.10;1.00
2202;DHT22;1107;48.654;9.250;2022-09-13T03:40:04;13.00;1.00
2202;DHT22;1107;48.654;9.250;2022-09-13T03:42:38;12.90;1.00
2202;DHT22;1107;48.654;9.250;2022-09-13T03:45:08;12.90;1.00
2202;DHT22;1107;48.654;9.250;2022-09-13T03:47:39;12.90;1.00
2202;DHT22;1107;48.654;9.250;2022-09-13T03:50:09;12.80;1.00
2202;DHT22;1107;48.654;9.250;2022-09-13T03:52:40;12.80;1.00
2202;DHT22;1107;48.654;9.250;2022-09-13T03:55:08;12.80;1.00
2202;DHT22;1107;48.654;9.250;2022-09-13T03:57:36;12.80;1.00
2202;DHT22;1107;48.654;9.250;2022-09-13T04:00:04;12.80;1.00
2202;DHT22;1107;48.654;9.250;2022-09-13T04:02:31;12.80;1.00
2202;DHT22;1107;48.654;9.250;2022-09-13T04:04:58;12.80;1.00
2202;DHT22;1107;48.654;9.250;2022-09-13T04:07:27;12.80;1.00
2202;DHT22;1107;48.654;9.250;2022-09-13T04:09:54;12.90;1.00
2202;DHT22;1107;48.654;9.250;2022-09-13T04:12:21;12.90;1.00
2202;DHT22;1107;48.654;9.250;2022-09-13T04:14:48;13.00;1.00
2202;DHT22;1107;48.654;9.250;2022-09-13T04:17:15;13.00;1.00
2202;DHT22;1107;48.654;9.250;2022-09-13T04:19:43;13.00;1.00
2202;DHT22;1107;48.654;9.250;2022-09-13T04:22:11;13.00;1.00
2202;DHT22;1107;48.654;9.250;2022-09-13T04:24:40;13.10;1.00
2202;DHT22;1107;48.654;9.250;2022-09-13T04:27:08;13.10;1.00
2202;DHT22;1107;48.654;9.250;2022-09-13T04:29:36;13.10;1.00
2202;DHT22;1107;48.654;9.250;2022-09-13T04:32:04;13.10;1.00
2202;DHT22;1107;48.654;9.250;2022-09-13T04:34:31;13.20;1.00
2202;DHT22;1107;48.654;9.250;2022-09-13T04:36:57;13.20;1.00
2202;DHT22;1107;48.654;9.250;2022-09-13T04:39:24;13.20;1.00
2202;DHT22;1107;48.654;9.250;2022-09-13T04:41:53;13.20;1.00
2202;DHT22;1107;48.654;9.250;2022-09-13T04:44:20;13.20;1.00
2202;DHT22;1107;48.654;9.250;2022-09-13T04:46:49;13.20;1.00
2202;DHT22;1107;48.654;9.250;2022-09-13T04:49:16;13.30;1.00
2202;DHT22;1107;48.654;9.250;2022-09-13T04:51:44;13.40;1.00
2202;DHT22;1107;48.654;9.250;2022-09-13T04:54:12;13.50;1.00
2202;DHT22;1107;48.654;9.250;2022-09-13T04:56:39;13.60;1.00
2202;DHT22;1107;48.654;9.250;2022-09-13T04:59:08;13.60;1.00
2202;DHT22;1107;48.654;9.250;2022-09-13T05:01:35;13.70;1.00
2202;DHT22;1107;48.654;9.250;2022-09-13T05:04:03;13.60;1.00
2202;DHT22;1107;48.654;9.250;2022-09-13T05:06:31;13.60;1.00
2202;DHT22;1107;48.654;9.250;2022-09-13T05:08:58;13.50;1.00
2202;DHT22;1107;48.654;9.250;2022-09-13T05:11:26;13.40;1.00
2202;DHT22;1107;48.654;9.250;2022-09-13T05:13:55;13.30;1.00
2202;DHT22;1107;48.654;9.250;2022-09-13T05:16:25;13.30;1.00
2202;DHT22;1107;48.654;9.250;2022-09-13T05:18:53;13.30;1.00
2202;DHT22;1107;48.654;9.250;2022-09-13T05:21:20;13.10;1.00
2202;DHT22;1107;48.654;9.250;2022-09-13T05:23:49;13.30;1.00
2202;DHT22;1107;48.654;9.250;2022-09-13T05:26:16;13.30;1.00
2202;DHT22;1107;48.654;9.250;2022-09-13T05:28:44;13.40;1.00
2202;DHT22;1107;48.654;9.250;2022-09-13T05:31:13;13.50;1.00
2202;DHT22;1107;48.654;9.250;2022-09-13T05:33:42;13.60;1.00
2202;DHT22;1107;48.654;9.250;2022-09-13T05:36:10;13.80;1.00
2202;DHT22;1107;48.654;9.250;2022-09-13T05:38:37;13.90;99.90
2202;DHT22;1107;48.654;9.250;2022-09-13T05:41:04;14.00;99.00
2202;DHT22;1107;48.654;9.250;2022-09-13T05:43:34;14.10;99.90
2202;DHT22;1107;48.654;9.250;2022-09-13T05:46:03;14.00;99.90
2202;DHT22;1107;48.654;9.250;2022-09-13T05:48:31;14.00;99.90
2202;DHT22;1107;48.654;9.250;2022-09-13T05:51:05;14.10;42.20
2202;DHT22;1107;48.654;9.250;2022-09-13T05:53:32;14.10;1.00
2202;DHT22;1107;48.654;9.250;2022-09-13T05:55:59;14.10;18.20
2202;DHT22;1107;48.654;9.250;2022-09-13T05:58:26;14.20;1.00
2202;DHT22;1107;48.654;9.250;2022-09-13T06:00:53;14.30;1.00
2202;DHT22;1107;48.654;9.250;2022-09-13T06:03:20;14.40;99.90
2202;DHT22;1107;48.654;9.250;2022-09-13T06:05:47;14.50;1.00
2202;DHT22;1107;48.654;9.250;2022-09-13T06:08:16;14.70;1.00
2202;DHT22;1107;48.654;9.250;2022-09-13T06:10:43;15.00;1.00
2202;DHT22;1107;48.654;9.250;2022-09-13T06:13:10;15.20;1.00
2202;DHT22;1107;48.654;9.250;2022-09-13T06:15:37;15.20;99.90
2202;DHT22;1107;48.654;9.250;2022-09-13T06:18:04;15.20;1.00
2202;DHT22;1107;48.654;9.250;2022-09-13T06:20:31;15.30;1.00
2202;DHT22;1107;48.654;9.250;2022-09-13T06:22:58;15.40;1.00
2202;DHT22;1107;48.654;9.250;2022-09-13T06:25:26;15.50;1.00
2202;DHT22;1107;48.654;9.250;2022-09-13T06:27:53;15.70;1.00
2202;DHT22;1107;48.654;9.250;2022-09-13T06:30:20;15.80;1.00
2202;DHT22;1107;48.654;9.250;2022-09-13T06:32:47;15.80;99.90
2202;DHT22;1107;48.654;9.250;2022-09-13T06:35:14;15.60;1.00
2202;DHT22;1107;48.654;9.250;2022-09-13T06:37:42;15.40;1.00
2202;DHT22;1107;48.654;9.250;2022-09-13T06:40:09;15.30;99.90
2202;DHT22;1107;48.654;9.250;2022-09-13T06:42:39;15.10;1.00
2202;DHT22;1107;48.654;9.250;2022-09-13T06:45:07;15.10;1.00
2202;DHT22;1107;48.654;9.250;2022-09-13T06:47:34;15.00;99.90
2202;DHT22;1107;48.654;9.250;2022-09-13T06:50:01;15.40;1.00
2202;DHT22;1107;48.654;9.250;2022-09-13T06:52:28;16.30;1.00
2202;DHT22;1107;48.654;9.250;2022-09-13T06:54:55;17.10;99.90
2202;DHT22;1107;48.654;9.250;2022-09-13T06:57:22;17.40;1.00
2202;DHT22;1107;48.654;9.250;2022-09-13T06:59:50;18.00;1.00
2202;DHT22;1107;48.654;9.250;2022-09-13T07:02:17;18.50;99.90
2202;DHT22;1107;48.654;9.250;2022-09-13T07:04:44;18.90;99.90
2202;DHT22;1107;48.654;9.250;2022-09-13T07:07:11;19.20;1.00
2202;DHT22;1107;48.654;9.250;2022-09-13T07:09:38;19.40;1.00
2202;DHT22;1107;48.654;9.250;2022-09-13T07:12:05;19.40;1.00
2202;DHT22;1107;48.654;9.250;2022-09-13T07:14:32;19.50;1.00
2202;DHT22;1107;48.654;9.250;2022-09-13T07:17:01;19.80;1.00
2202;DHT22;1107;48.654;9.250;2022-09-13T07:19:28;20.00;1.00
2202;DHT22;1107;48.654;9.250;2022-09-13T07:21:56;19.50;1.00
2202;DHT22;1107;48.654;9.250;2022-09-13T07:24:24;19.30;1.00
2202;DHT22;1107;48.654;9.250;2022-09-13T07:26:52;19.50;1.00
2202;DHT22;1107;48.654;9.250;2022-09-13T07:29:20;19.80;1.00
2202;DHT22;1107;48.654;9.250;2022-09-13T07:31:50;20.00;1.00
2202;DHT22;1107;48.654;9.250;2022-09-13T07:34:20;20.30;1.00
2202;DHT22;1107;48.654;9.250;2022-09-13T07:36:47;20.80;1.00
2202;DHT22;1107;48.654;9.250;2022-09-13T07:39:15;21.00;1.00
2202;DHT22;1107;48.654;9.250;2022-09-13T07:41:43;21.30;99.90
2202;DHT22;1107;48.654;9.250;2022-09-13T07:44:11;21.60;99.90
2202;DHT22;1107;48.654;9.250;2022-09-13T07:46:39;21.50;99.90
2202;DHT22;1107;48.654;9.250;2022-09-13T07:49:09;21.90;99.90
2202;DHT22;1107;48.654;9.250;2022-09-13T07:51:39;21.90;99.90
2202;DHT22;1107;48.654;9.250;2022-09-13T07:54:09;21.70;99.90
2202;DHT22;1107;48.654;9.250;2022-09-13T07:56:38;22.10;99.90
2202;DHT22;1107;48.654;9.250;2022-09-13T07:59:06;22.70;99.90
2202;DHT22;1107;48.654;9.250;2022-09-13T08:01:35;23.20;99.90
2202;DHT22;1107;48.654;9.250;2022-09-13T08:04:04;23.90;99.90
2202;DHT22;1107;48.654;9.250;2022-09-13T08:06:33;24.10;99.90
2202;DHT22;1107;48.654;9.250;2022-09-13T08:09:02;23.70;99.90
2202;DHT22;1107;48.654;9.250;2022-09-13T08:11:32;24.40;99.90
2202;DHT22;1107;48.654;9.250;2022-09-13T08:13:59;24.30;99.90
2202;DHT22;1107;48.654;9.250;2022-09-13T08:16:28;24.70;99.90
2202;DHT22;1107;48.654;9.250;2022-09-13T08:18:56;24.90;99.90
2202;DHT22;1107;48.654;9.250;2022-09-13T08:21:24;25.30;99.90
2202;DHT22;1107;48.654;9.250;2022-09-13T08:23:54;25.60;99.90
2202;DHT22;1107;48.654;9.250;2022-09-13T08:26:26;25.50;99.90
2202;DHT22;1107;48.654;9.250;2022-09-13T08:29:00;24.50;99.90
2202;DHT22;1107;48.654;9.250;2022-09-13T08:31:27;24.10;99.90
2202;DHT22;1107;48.654;9.250;2022-09-13T08:33:55;24.10;99.90
2202;DHT22;1107;48.654;9.250;2022-09-13T08:36:24;24.80;99.90
2202;DHT22;1107;48.654;9.250;2022-09-13T08:38:52;25.50;99.90
2202;DHT22;1107;48.654;9.250;2022-09-13T08:44:35;26.20;99.90
2202;DHT22;1107;48.654;9.250;2022-09-13T08:47:22;26.70;99.90
2202;DHT22;1107;48.654;9.250;2022-09-13T08:49:53;26.80;99.90
2202;DHT22;1107;48.654;9.250;2022-09-13T08:52:29;26.90;99.90
2202;DHT22;1107;48.654;9.250;2022-09-13T08:55:03;27.60;99.90
2202;DHT22;1107;48.654;9.250;2022-09-13T08:57:40;28.10;99.90
2202;DHT22;1107;48.654;9.250;2022-09-13T09:00:16;28.40;96.30
2202;DHT22;1107;48.654;9.250;2022-09-13T09:02:57;28.80;98.20
2202;DHT22;1107;48.654;9.250;2022-09-13T09:05:30;28.20;92.80
2202;DHT22;1107;48.654;9.250;2022-09-13T09:08:00;27.70;90.30
2202;DHT22;1107;48.654;9.250;2022-09-13T09:10:30;28.10;89.40
2202;DHT22;1107;48.654;9.250;2022-09-13T09:13:01;28.20;91.30
2202;DHT22;1107;48.654;9.250;2022-09-13T09:15:34;27.30;85.10
2202;DHT22;1107;48.654;9.250;2022-09-13T09:18:04;26.40;83.90
2202;DHT22;1107;48.654;9.250;2022-09-13T09:20:38;25.90;87.40
2202;DHT22;1107;48.654;9.250;2022-09-13T09:23:12;26.00;92.50
2202;DHT22;1107;48.654;9.250;2022-09-13T09:25:40;27.30;98.50
2202;DHT22;1107;48.654;9.250;2022-09-13T09:28:11;28.10;97.00
2202;DHT22;1107;48.654;9.250;2022-09-13T09:30:45;28.50;93.00
2202;DHT22;1107;48.654;9.250;2022-09-13T09:33:38;28.20;81.40
2202;DHT22;1107;48.654;9.250;2022-09-13T09:36:17;27.90;79.50
2202;DHT22;1107;48.654;9.250;2022-09-13T09:38:45;28.20;83.70
2202;DHT22;1107;48.654;9.250;2022-09-13T09:41:17;29.20;89.30
2202;DHT22;1107;48.654;9.250;2022-09-13T09:43:51;30.00;84.70
2202;DHT22;1107;48.654;9.250;2022-09-13T09:46:26;30.40;83.90
2202;DHT22;1107;48.654;9.250;2022-09-13T09:48:56;31.00;78.10
2202;DHT22;1107;48.654;9.250;2022-09-13T09:51:28;31.20;67.90
2202;DHT22;1107;48.654;9.250;2022-09-13T09:54:00;31.40;62.20
2202;DHT22;1107;48.654;9.250;2022-09-13T09:56:31;31.80;57.60
2202;DHT22;1107;48.654;9.250;2022-09-13T09:58:58;32.20;54.10
2202;DHT22;1107;48.654;9.250;2022-09-13T10:01:30;32.00;50.00
2202;DHT22;1107;48.654;9.250;2022-09-13T10:04:04;31.40;44.30
2202;DHT22;1107;48.654;9.250;2022-09-13T10:06:34;31.60;42.60
2202;DHT22;1107;48.654;9.250;2022-09-13T10:09:03;31.10;35.30
2202;DHT22;1107;48.654;9.250;2022-09-13T10:11:40;30.50;33.50
2202;DHT22;1107;48.654;9.250;2022-09-13T10:14:30;30.30;37.10
2202;DHT22;1107;48.654;9.250;2022-09-13T10:17:04;30.60;39.80
2202;DHT22;1107;48.654;9.250;2022-09-13T10:19:32;31.20;41.90
2202;DHT22;1107;48.654;9.250;2022-09-13T10:22:00;31.00;36.60
2202;DHT22;1107;48.654;9.250;2022-09-13T10:24:27;31.40;40.00
2202;DHT22;1107;48.654;9.250;2022-09-13T10:26:55;32.40;44.40
2202;DHT22;1107;48.654;9.250;2022-09-13T10:29:23;33.00;41.60
2202;DHT22;1107;48.654;9.250;2022-09-13T10:31:52;33.50;36.10
2202;DHT22;1107;48.654;9.250;2022-09-13T10:34:25;34.20;30.20
2202;DHT22;1107;48.654;9.250;2022-09-13T10:36:56;34.60;26.00
2202;DHT22;1107;48.654;9.250;2022-09-13T10:39:25;33.80;18.50
2202;DHT22;1107;48.654;9.250;2022-09-13T10:41:55;33.30;14.50
2202;DHT22;1107;48.654;9.250;2022-09-13T10:44:27;34.00;16.70
2202;DHT22;1107;48.654;9.250;2022-09-13T10:46:56;34.30;17.00
2202;DHT22;1107;48.654;9.250;2022-09-13T10:49:36;34.50;13.20
2202;DHT22;1107;48.654;9.250;2022-09-13T10:52:25;34.80;8.60
2202;DHT22;1107;48.654;9.250;2022-09-13T10:54:52;34.80;4.20
2202;DHT22;1107;48.654;9.250;2022-09-13T10:57:33;35.20;3.40
2202;DHT22;1107;48.654;9.250;2022-09-13T11:00:00;35.60;3.70
2202;DHT22;1107;48.654;9.250;2022-09-13T11:02:45;35.80;1.00
2202;DHT22;1107;48.654;9.250;2022-09-13T11:05:23;35.80;1.00
2202;DHT22;1107;48.654;9.250;2022-09-13T11:08:25;36.10;1.00
2202;DHT22;1107;48.654;9.250;2022-09-13T11:11:03;36.10;1.00
2202;DHT22;1107;48.654;9.250;2022-09-13T11:13:39;35.90;1.00
2202;DHT22;1107;48.654;9.250;2022-09-13T11:16:21;35.70;1.00
2202;DHT22;1107;48.654;9.250;2022-09-13T11:19:00;35.80;1.00
2202;DHT22;1107;48.654;9.250;2022-09-13T11:21:42;36.30;1.00
2202;DHT22;1107;48.654;9.250;2022-09-13T11:24:26;36.60;1.00
2202;DHT22;1107;48.654;9.250;2022-09-13T11:27:02;36.70;1.00
2202;DHT22;1107;48.654;9.250;2022-09-13T11:30:02;36.20;1.00
2202;DHT22;1107;48.654;9.250;2022-09-13T11:32:41;35.70;1.00
2202;DHT22;1107;48.654;9.250;2022-09-13T11:35:28;35.00;1.00
2202;DHT22;1107;48.654;9.250;2022-09-13T11:38:07;34.80;1.00
2202;DHT22;1107;48.654;9.250;2022-09-13T11:40:46;34.90;1.00
2202;DHT22;1107;48.654;9.250;2022-09-13T11:43:33;35.10;1.00
2202;DHT22;1107;48.654;9.250;2022-09-13T11:46:08;35.50;1.00
2202;DHT22;1107;48.654;9.250;2022-09-13T11:49:16;35.40;1.00
2202;DHT22;1107;48.654;9.250;2022-09-13T11:51:53;34.70;1.00
2202;DHT22;1107;48.654;9.250;2022-09-13T11:54:34;33.90;1.00
2202;DHT22;1107;48.654;9.250;2022-09-13T11:57:07;33.30;1.00
2202;DHT22;1107;48.654;9.250;2022-09-13T11:59:39;33.00;1.00
2202;DHT22;1107;48.654;9.250;2022-09-13T12:02:15;32.90;1.00
2202;DHT22;1107;48.654;9.250;2022-09-13T12:04:49;32.70;1.00
2202;DHT22;1107;48.654;9.250;2022-09-13T12:07:28;33.20;1.00
2202;DHT22;1107;48.654;9.250;2022-09-13T12:10:02;33.40;1.00
2202;DHT22;1107;48.654;9.250;2022-09-13T12:12:33;33.50;1.00
2202;DHT22;1107;48.654;9.250;2022-09-13T12:15:05;33.50;1.00
2202;DHT22;1107;48.654;9.250;2022-09-13T12:17:38;33.20;1.00
2202;DHT22;1107;48.654;9.250;2022-09-13T12:20:14;32.70;1.00
2202;DHT22;1107;48.654;9.250;2022-09-13T12:22:43;32.30;1.00
2202;DHT22;1107;48.654;9.250;2022-09-13T12:25:18;32.00;1.00
2202;DHT22;1107;48.654;9.250;2022-09-13T12:27:53;31.80;1.00
2202;DHT22;1107;48.654;9.250;2022-09-13T12:30:24;31.70;1.00
2202;DHT22;1107;48.654;9.250;2022-09-13T12:32:53;31.80;1.00
2202;DHT22;1107;48.654;9.250;2022-09-13T12:35:24;31.70;1.00
2202;DHT22;1107;48.654;9.250;2022-09-13T12:41:15;32.70;1.00
2202;DHT22;1107;48.654;9.250;2022-09-13T12:47:26;32.50;1.00
2202;DHT22;1107;48.654;9.250;2022-09-13T12:50:31;32.40;1.00
2202;DHT22;1107;48.654;9.250;2022-09-13T12:53:07;33.10;1.00
2202;DHT22;1107;48.654;9.250;2022-09-13T12:56:14;34.10;1.00
2202;DHT22;1107;48.654;9.250;2022-09-13T12:59:02;34.30;1.00
2202;DHT22;1107;48.654;9.250;2022-09-13T13:01:31;33.60;1.00
2202;DHT22;1107;48.654;9.250;2022-09-13T13:04:10;33.00;1.00
2202;DHT22;1107;48.654;9.250;2022-09-13T13:06:48;32.70;1.00
2202;DHT22;1107;48.654;9.250;2022-09-13T13:09:32;32.90;1.00
2202;DHT22;1107;48.654;9.250;2022-09-13T13:12:01;33.30;1.00
2202;DHT22;1107;48.654;9.250;2022-09-13T13:14:48;33.20;1.00
2202;DHT22;1107;48.654;9.250;2022-09-13T13:17:36;33.30;1.00
2202;DHT22;1107;48.654;9.250;2022-09-13T13:23:12;33.70;1.00
2202;DHT22;1107;48.654;9.250;2022-09-13T13:26:07;33.80;1.00
2202;DHT22;1107;48.654;9.250;2022-09-13T13:32:05;33.20;1.00
2202;DHT22;1107;48.654;9.250;2022-09-13T13:34:41;32.80;1.00
2202;DHT22;1107;48.654;9.250;2022-09-13T13:37:35;33.10;1.00
2202;DHT22;1107;48.654;9.250;2022-09-13T13:40:23;33.40;1.00
2202;DHT22;1107;48.654;9.250;2022-09-13T13:46:27;32.70;1.00
2202;DHT22;1107;48.654;9.250;2022-09-13T13:52:37;31.40;1.00
2202;DHT22;1107;48.654;9.250;2022-09-13T13:55:27;31.30;1.00
2202;DHT22;1107;48.654;9.250;2022-09-13T13:57:59;31.40;1.00
2202;DHT22;1107;48.654;9.250;2022-09-13T14:00:28;31.10;1.00
2202;DHT22;1107;48.654;9.250;2022-09-13T14:03:07;30.90;1.00
2202;DHT22;1107;48.654;9.250;2022-09-13T14:05:43;31.20;1.00
2202;DHT22;1107;48.654;9.250;2022-09-13T14:08:31;31.50;1.00
2202;DHT22;1107;48.654;9.250;2022-09-13T14:11:09;32.70;1.00
2202;DHT22;1107;48.654;9.250;2022-09-13T14:13:47;32.70;1.00
2202;DHT22;1107;48.654;9.250;2022-09-13T14:16:27;32.70;1.00
2202;DHT22;1107;48.654;9.250;2022-09-13T14:19:14;32.90;1.00
2202;DHT22;1107;48.654;9.250;2022-09-13T14:21:44;32.80;1.00
2202;DHT22;1107;48.654;9.250;2022-09-13T14:24:22;32.80;1.00
2202;DHT22;1107;48.654;9.250;2022-09-13T14:26:52;32.60;1.00
2202;DHT22;1107;48.654;9.250;2022-09-13T14:29:20;32.70;1.00
2202;DHT22;1107;48.654;9.250;2022-09-13T14:31:52;32.90;1.00
2202;DHT22;1107;48.654;9.250;2022-09-13T14:34:23;33.10;1.00
2202;DHT22;1107;48.654;9.250;2022-09-13T14:36:57;33.00;1.00
2202;DHT22;1107;48.654;9.250;2022-09-13T14:39:25;32.50;1.00
2202;DHT22;1107;48.654;9.250;2022-09-13T14:41:58;32.10;1.00
2202;DHT22;1107;48.654;9.250;2022-09-13T14:44:26;31.90;1.00
2202;DHT22;1107;48.654;9.250;2022-09-13T14:46:58;31.50;1.00
2202;DHT22;1107;48.654;9.250;2022-09-13T14:49:32;31.50;1.00
2202;DHT22;1107;48.654;9.250;2022-09-13T14:52:03;31.80;1.00
2202;DHT22;1107;48.654;9.250;2022-09-13T14:54:36;31.50;1.00
2202;DHT22;1107;48.654;9.250;2022-09-13T14:57:07;31.40;1.00
2202;DHT22;1107;48.654;9.250;2022-09-13T14:59:41;31.20;1.00
2202;DHT22;1107;48.654;9.250;2022-09-13T15:02:16;30.70;1.00
2202;DHT22;1107;48.654;9.250;2022-09-13T15:04:49;30.30;1.00
2202;DHT22;1107;48.654;9.250;2022-09-13T15:07:26;30.00;1.00
2202;DHT22;1107;48.654;9.250;2022-09-13T15:09:56;29.60;1.00
2202;DHT22;1107;48.654;9.250;2022-09-13T15:12:27;29.50;1.00
2202;DHT22;1107;48.654;9.250;2022-09-13T15:15:30;29.30;1.00
2202;DHT22;1107;48.654;9.250;2022-09-13T15:17:59;29.10;1.00
2202;DHT22;1107;48.654;9.250;2022-09-13T15:20:28;28.90;1.00
2202;DHT22;1107;48.654;9.250;2022-09-13T15:22:57;28.80;1.00
2202;DHT22;1107;48.654;9.250;2022-09-13T15:25:25;28.70;1.00
2202;DHT22;1107;48.654;9.250;2022-09-13T15:27:53;28.70;1.00
2202;DHT22;1107;48.654;9.250;2022-09-13T15:30:25;28.60;1.00
2202;DHT22;1107;48.654;9.250;2022-09-13T15:33:16;28.50;1.00
2202;DHT22;1107;48.654;9.250;2022-09-13T15:35:44;28.30;1.00
2202;DHT22;1107;48.654;9.250;2022-09-13T15:38:24;28.20;1.00
2202;DHT22;1107;48.654;9.250;2022-09-13T15:41:01;28.10;1.00
2202;DHT22;1107;48.654;9.250;2022-09-13T15:43:29;28.00;1.00
2202;DHT22;1107;48.654;9.250;2022-09-13T15:45:57;27.90;1.00
2202;DHT22;1107;48.654;9.250;2022-09-13T15:48:26;27.80;1.00
2202;DHT22;1107;48.654;9.250;2022-09-13T15:51:06;27.80;1.00
2202;DHT22;1107;48.654;9.250;2022-09-13T15:53:35;27.80;1.00
2202;DHT22;1107;48.654;9.250;2022-09-13T15:56:04;27.70;1.00
2202;DHT22;1107;48.654;9.250;2022-09-13T15:58:31;27.60;1.00
2202;DHT22;1107;48.654;9.250;2022-09-13T16:00:58;27.60;1.00
2202;DHT22;1107;48.654;9.250;2022-09-13T16:03:25;27.50;1.00
2202;DHT22;1107;48.654;9.250;2022-09-13T16:05:52;27.40;1.00
2202;DHT22;1107;48.654;9.250;2022-09-13T16:08:19;27.30;1.00
2202;DHT22;1107;48.654;9.250;2022-09-13T16:10:47;27.20;1.00
2202;DHT22;1107;48.654;9.250;2022-09-13T16:13:14;27.10;1.00
2202;DHT22;1107;48.654;9.250;2022-09-13T16:15:41;27.00;1.00
2202;DHT22;1107;48.654;9.250;2022-09-13T16:18:08;26.90;1.00
2202;DHT22;1107;48.654;9.250;2022-09-13T16:20:36;26.70;1.00
2202;DHT22;1107;48.654;9.250;2022-09-13T16:23:03;26.50;1.00
2202;DHT22;1107;48.654;9.250;2022-09-13T16:25:30;26.40;1.00
2202;DHT22;1107;48.654;9.250;2022-09-13T16:27:58;26.20;1.00
2202;DHT22;1107;48.654;9.250;2022-09-13T16:30:25;26.10;1.00
2202;DHT22;1107;48.654;9.250;2022-09-13T16:32:55;25.90;1.00
2202;DHT22;1107;48.654;9.250;2022-09-13T16:35:24;25.80;1.00
2202;DHT22;1107;48.654;9.250;2022-09-13T16:37:51;25.70;1.00
2202;DHT22;1107;48.654;9.250;2022-09-13T16:40:18;25.60;1.00
2202;DHT22;1107;48.654;9.250;2022-09-13T16:42:46;25.60;1.00
2202;DHT22;1107;48.654;9.250;2022-09-13T16:45:14;25.50;1.00
2202;DHT22;1107;48.654;9.250;2022-09-13T16:47:41;25.40;1.00
2202;DHT22;1107;48.654;9.250;2022-09-13T16:50:09;25.40;1.00
2202;DHT22;1107;48.654;9.250;2022-09-13T16:52:36;25.40;1.00
2202;DHT22;1107;48.654;9.250;2022-09-13T16:55:03;25.30;1.00
2202;DHT22;1107;48.654;9.250;2022-09-13T16:57:31;25.30;1.00
2202;DHT22;1107;48.654;9.250;2022-09-13T16:59:59;25.20;1.00
2202;DHT22;1107;48.654;9.250;2022-09-13T17:02:29;25.10;1.00
2202;DHT22;1107;48.654;9.250;2022-09-13T17:04:56;25.00;1.00
2202;DHT22;1107;48.654;9.250;2022-09-13T17:07:23;25.00;1.00
2202;DHT22;1107;48.654;9.250;2022-09-13T17:09:50;24.90;1.00
2202;DHT22;1107;48.654;9.250;2022-09-13T17:12:17;24.80;1.00
2202;DHT22;1107;48.654;9.250;2022-09-13T17:14:44;24.80;1.00